createdAt,value
2018-04-17T00:00:13.842Z,7.40
2018-04-17T00:02:43.729Z,7.70
2018-04-17T00:05:14.111Z,7.67
2018-04-17T00:07:47.398Z,7.70
2018-04-17T00:10:17.768Z,7.10
2018-04-17T00:12:52.495Z,7.07
2018-04-17T00:15:32.301Z,7.33
2018-04-17T00:18:04.669Z,10.00
2018-04-17T00:23:53.015Z,11.70
2018-04-17T00:26:27.471Z,7.93
2018-04-17T00:28:57.011Z,7.53
2018-04-17T00:31:35.154Z,7.00
2018-04-17T00:34:35.287Z,6.17
2018-04-17T00:37:26.650Z,6.10
2018-04-17T00:43:43.260Z,6.00
2018-04-17T00:52:05.816Z,6.33
2018-04-17T00:54:38.652Z,7.10
2018-04-17T00:57:13.381Z,7.30
2018-04-17T00:59:51.685Z,7.23
2018-04-17T01:02:32.620Z,7.07
2018-04-17T01:07:45.285Z,8.17
2018-04-17T01:10:26.517Z,7.63
2018-04-17T01:12:55.646Z,8.10
2018-04-17T01:15:30.638Z,7.07
2018-04-17T01:18:25.968Z,6.67
2018-04-17T01:21:23.370Z,7.80
2018-04-17T01:23:54.492Z,6.60
2018-04-17T01:26:33.078Z,7.67
2018-04-17T01:29:07.824Z,6.97
2018-04-17T01:37:17.602Z,6.20
2018-04-17T01:39:53.559Z,7.40
2018-04-17T01:42:28.741Z,6.40
2018-04-17T01:45:02.309Z,6.83
2018-04-17T01:47:51.544Z,6.60
2018-04-17T01:50:21.883Z,8.03
2018-04-17T01:52:54.137Z,6.93
2018-04-17T01:55:27.792Z,6.90
2018-04-17T01:57:58.945Z,7.40
2018-04-17T02:00:34.096Z,7.10
2018-04-17T02:03:17.341Z,6.47
2018-04-17T02:06:31.271Z,7.43
2018-04-17T02:09:02.305Z,7.20
2018-04-17T02:14:42.356Z,7.93
2018-04-17T02:17:35.576Z,6.50
2018-04-17T02:27:22.546Z,6.90
2018-04-17T02:29:55.163Z,6.97
2018-04-17T02:47:10.133Z,7.30
2018-04-17T02:49:54.598Z,8.53
2018-04-17T02:57:08.956Z,8.60
2018-04-17T03:11:35.665Z,8.67
2018-04-17T03:14:20.549Z,8.90
2018-04-17T03:16:58.704Z,9.60
2018-04-17T03:19:33.616Z,9.37
2018-04-17T03:25:40.210Z,8.70
2018-04-17T03:28:08.794Z,10.50
2018-04-17T03:30:38.962Z,9.90
2018-04-17T03:33:07.540Z,10.27
2018-04-17T03:35:36.260Z,10.07
2018-04-17T03:38:06.159Z,10.50
2018-04-17T03:40:36.159Z,9.90
2018-04-17T03:43:04.811Z,10.73
2018-04-17T03:45:33.711Z,8.90
2018-04-17T03:48:04.412Z,10.63
2018-04-17T03:50:32.992Z,10.20
2018-04-17T03:53:02.221Z,10.60
2018-04-17T03:55:30.795Z,9.77
2018-04-17T03:57:59.432Z,10.40
2018-04-17T04:00:28.404Z,10.03
2018-04-17T04:02:56.975Z,10.37
2018-04-17T04:05:27.116Z,11.23
2018-04-17T04:07:56.508Z,11.20
2018-04-17T04:10:25.063Z,10.50
2018-04-17T04:12:53.622Z,10.10
2018-04-17T04:15:22.624Z,11.87
2018-04-17T04:20:09.371Z,12.30
2018-04-17T04:22:50.702Z,13.03
2018-04-17T04:25:32.161Z,11.77
2018-04-17T04:28:01.483Z,13.47
2018-04-17T04:30:30.095Z,10.83
2018-04-17T04:32:58.627Z,13.03
2018-04-17T04:35:27.705Z,12.20
2018-04-17T04:38:01.519Z,11.10
2018-04-17T04:40:30.408Z,11.90
2018-04-17T04:43:00.174Z,11.33
2018-04-17T04:45:28.898Z,11.50
2018-04-17T04:47:57.572Z,11.00
2018-04-17T04:50:26.926Z,10.57
2018-04-17T04:52:55.530Z,10.83
2018-04-17T04:55:24.204Z,11.13
2018-04-17T04:57:53.234Z,11.83
2018-04-17T05:00:25.379Z,11.73
2018-04-17T05:02:54.123Z,11.70
2018-04-17T05:05:23.065Z,12.87
2018-04-17T05:07:58.334Z,13.70
2018-04-17T05:10:26.874Z,14.00
2018-04-17T05:13:00.356Z,13.73
2018-04-17T05:15:29.003Z,16.00
2018-04-17T05:17:59.640Z,14.40
2018-04-17T05:20:28.516Z,13.97
2018-04-17T05:23:01.559Z,14.23
2018-04-17T05:25:30.113Z,14.77
2018-04-17T05:28:02.707Z,13.07
2018-04-17T05:30:33.153Z,14.30
2018-04-17T05:33:02.132Z,13.80
2018-04-17T05:35:33.208Z,13.57
2018-04-17T05:38:02.715Z,12.83
2018-04-17T05:40:31.306Z,13.20
2018-04-17T05:43:06.775Z,13.00
2018-04-17T05:45:35.429Z,12.90
2018-04-17T05:48:05.076Z,14.50
2018-04-17T05:50:34.052Z,14.23
2018-04-17T05:53:03.008Z,14.83
2018-04-17T05:55:31.603Z,14.80
2018-04-17T05:58:00.724Z,13.03
2018-04-17T06:00:29.383Z,15.40
2018-04-17T06:03:04.864Z,14.63
2018-04-17T06:05:34.084Z,14.77
2018-04-17T06:08:03.728Z,16.57
2018-04-17T06:10:32.304Z,15.83
2018-04-17T06:13:01.469Z,13.77
2018-04-17T06:15:29.984Z,15.87
2018-04-17T06:17:58.520Z,15.57
2018-04-17T06:23:06.864Z,15.50
2018-04-17T06:25:35.565Z,17.60
2018-04-17T06:28:07.173Z,18.80
2018-04-17T06:30:42.278Z,17.00
2018-04-17T06:33:10.892Z,15.80
2018-04-17T06:35:45.496Z,17.53
2018-04-17T06:38:14.613Z,16.90
2018-04-17T06:40:46.593Z,17.20
2018-04-17T06:43:16.053Z,16.10
2018-04-17T06:45:45.019Z,18.30
2018-04-17T06:48:13.659Z,18.80
2018-04-17T06:50:48.622Z,18.20
2018-04-17T06:53:17.695Z,17.83
2018-04-17T06:55:46.263Z,18.30
2018-04-17T06:58:14.880Z,17.20
2018-04-17T07:00:43.874Z,19.70
2018-04-17T07:03:12.522Z,19.50
2018-04-17T07:05:41.214Z,20.70
2018-04-17T07:08:10.225Z,21.27
2018-04-17T07:13:11.891Z,20.93
2018-04-17T07:15:44.739Z,22.23
2018-04-17T07:18:13.418Z,21.67
2018-04-17T07:20:43.881Z,22.70
2018-04-17T07:23:12.904Z,22.73
2018-04-17T07:25:41.553Z,24.10
2018-04-17T07:28:10.134Z,26.20
2018-04-17T07:30:39.235Z,24.90
2018-04-17T07:33:07.885Z,27.03
2018-04-17T07:35:41.411Z,28.27
2018-04-17T07:38:10.439Z,25.20
2018-04-17T07:40:40.180Z,24.20
2018-04-17T07:43:08.730Z,24.07
2018-04-17T07:45:39.695Z,24.93
2018-04-17T07:48:20.042Z,24.93
2018-04-17T07:50:49.501Z,27.27
2018-04-17T07:53:18.071Z,25.20
2018-04-17T07:55:52.738Z,23.93
2018-04-17T07:58:21.822Z,25.97
2018-04-17T08:00:50.382Z,26.80
2018-04-17T08:03:18.971Z,25.30
2018-04-17T08:05:47.991Z,27.33
2018-04-17T08:08:16.611Z,26.40
2018-04-17T08:10:48.959Z,27.80
2018-04-17T08:13:17.945Z,29.30
2018-04-17T08:15:46.538Z,29.30
2018-04-17T08:18:18.178Z,30.60
2018-04-17T08:20:48.183Z,28.80
2018-04-17T08:23:16.884Z,31.77
2018-04-17T08:25:51.159Z,31.50
2018-04-17T08:28:20.220Z,29.77
2018-04-17T08:30:48.779Z,28.80
2018-04-17T08:33:17.344Z,30.67
2018-04-17T08:35:46.451Z,29.20
2018-04-17T08:38:15.021Z,38.13
2018-04-17T08:40:44.536Z,31.73
2018-04-17T08:43:13.465Z,28.10
2018-04-17T08:45:42.080Z,27.47
2018-04-17T08:48:10.685Z,28.67
2018-04-17T08:50:39.791Z,27.53
2018-04-17T08:53:08.466Z,25.93
2018-04-17T08:55:42.158Z,26.07
2018-04-17T08:58:11.035Z,25.63
2018-04-17T09:00:39.581Z,25.40
2018-04-17T09:03:08.175Z,24.70
2018-04-17T09:05:37.676Z,25.90
2018-04-17T09:08:06.704Z,27.50
2018-04-17T09:10:35.439Z,24.93
2018-04-17T09:13:08.487Z,25.33
2018-04-17T09:15:37.492Z,24.37
2018-04-17T09:18:06.046Z,24.80
2018-04-17T09:20:35.005Z,29.70
2018-04-17T09:23:05.039Z,25.20
2018-04-17T09:25:33.559Z,24.67
2018-04-17T09:28:03.486Z,22.60
2018-04-17T09:30:32.069Z,24.60
2018-04-17T09:33:00.761Z,24.20
2018-04-17T09:35:29.647Z,24.47
2018-04-17T09:37:58.202Z,22.87
2018-04-17T09:40:26.752Z,21.93
2018-04-17T09:42:56.063Z,24.80
2018-04-17T09:45:24.605Z,22.60
2018-04-17T09:47:53.250Z,24.70
2018-04-17T09:50:22.167Z,23.70
2018-04-17T09:52:50.733Z,24.00
2018-04-17T09:55:19.370Z,25.07
2018-04-17T09:57:48.257Z,22.30
2018-04-17T10:00:18.467Z,25.73
2018-04-17T10:02:47.474Z,24.43
2018-04-17T10:05:16.168Z,31.70
2018-04-17T10:07:44.739Z,29.90
2018-04-17T10:10:13.598Z,30.67
2018-04-17T10:12:42.152Z,23.50
2018-04-17T10:15:10.739Z,29.50
2018-04-17T10:17:39.347Z,30.90
2018-04-17T10:20:08.399Z,32.43
2018-04-17T10:22:37.668Z,30.00
2018-04-17T10:25:06.717Z,26.43
2018-04-17T10:27:35.397Z,26.43
2018-04-17T10:30:10.164Z,27.00
2018-04-17T10:32:39.464Z,28.13
2018-04-17T10:35:07.979Z,24.77
2018-04-17T10:40:11.755Z,25.10
2018-04-17T10:42:40.716Z,25.93
2018-04-17T10:45:09.265Z,22.03
2018-04-17T10:47:38.597Z,23.30
2018-04-17T10:50:07.190Z,21.80
2018-04-17T10:52:35.989Z,23.63
2018-04-17T10:55:05.542Z,22.80
2018-04-17T10:57:34.113Z,20.87
2018-04-17T11:00:08.131Z,18.50
2018-04-17T11:02:37.069Z,21.20
2018-04-17T11:05:12.112Z,20.47
2018-04-17T11:07:40.959Z,19.90
2018-04-17T11:10:09.901Z,18.17
2018-04-17T11:12:38.610Z,20.33
2018-04-17T11:15:08.357Z,19.10
2018-04-17T11:17:37.443Z,20.20
2018-04-17T11:20:06.041Z,17.40
2018-04-17T11:22:34.589Z,19.27
2018-04-17T11:25:03.836Z,16.10
2018-04-17T11:27:32.395Z,15.60
2018-04-17T11:30:01.050Z,17.10
2018-04-17T11:32:31.948Z,13.50
2018-04-17T11:35:00.671Z,11.97
2018-04-17T11:40:05.933Z,10.03
2018-04-17T11:42:34.506Z,11.13
2018-04-17T11:45:04.453Z,7.93
2018-04-17T11:47:33.306Z,9.63
2018-04-17T11:50:04.603Z,8.83
2018-04-17T11:52:36.600Z,8.13
2018-04-17T11:55:05.574Z,7.30
2018-04-17T11:57:34.159Z,6.93
2018-04-17T12:00:04.961Z,9.60
2018-04-17T12:02:35.895Z,8.63
2018-04-17T12:05:06.019Z,9.80
2018-04-17T12:07:34.591Z,9.40
2018-04-17T12:10:05.190Z,8.23
2018-04-17T12:12:33.728Z,5.70
2018-04-17T12:15:02.548Z,5.43
2018-04-17T12:17:31.609Z,5.00
2018-04-17T12:20:00.548Z,6.20
2018-04-17T12:22:29.101Z,4.47
2018-04-17T12:25:03.990Z,4.70
2018-04-17T12:27:32.743Z,5.27
2018-04-17T12:30:03.530Z,4.43
2018-04-17T12:32:32.388Z,5.67
2018-04-17T12:35:00.951Z,6.13
2018-04-17T12:37:29.533Z,5.40
2018-04-17T12:39:58.399Z,4.60
2018-04-17T12:42:26.934Z,3.63
2018-04-17T12:44:55.495Z,4.07
2018-04-17T12:47:24.356Z,3.63
2018-04-17T12:49:53.230Z,4.10
2018-04-17T12:52:21.837Z,4.70
2018-04-17T12:54:50.384Z,4.00
2018-04-17T12:57:18.990Z,6.03
2018-04-17T12:59:47.522Z,4.70
2018-04-17T13:02:16.636Z,4.47
2018-04-17T13:04:48.118Z,3.60
2018-04-17T13:07:16.813Z,4.70
2018-04-17T13:09:54.006Z,5.30
2018-04-17T13:12:22.595Z,4.40
2018-04-17T13:15:00.935Z,3.90
2018-04-17T13:17:29.551Z,4.63
2018-04-17T13:20:06.495Z,4.60
2018-04-17T13:22:35.440Z,4.47
2018-04-17T13:25:04.442Z,3.73
2018-04-17T13:27:33.086Z,4.23
2018-04-17T13:30:02.969Z,4.23
2018-04-17T13:32:31.626Z,4.47
2018-04-17T13:35:00.274Z,3.67
2018-04-17T13:37:29.209Z,4.90
2018-04-17T13:39:57.741Z,3.80
2018-04-17T13:42:26.363Z,4.10
2018-04-17T13:44:56.374Z,3.27
2018-04-17T13:47:24.931Z,6.50
2018-04-17T13:49:55.695Z,3.90
2018-04-17T13:52:24.527Z,3.30
2018-04-17T13:54:53.133Z,3.23
2018-04-17T13:57:21.705Z,4.20
2018-04-17T13:59:56.728Z,3.40
2018-04-17T14:02:25.325Z,3.73
2018-04-17T14:07:27.888Z,3.63
2018-04-17T14:10:00.293Z,3.00
2018-04-17T14:12:28.853Z,3.33
2018-04-17T14:14:57.693Z,3.37
2018-04-17T14:17:26.449Z,3.30
2018-04-17T14:19:55.255Z,3.37
2018-04-17T14:22:24.139Z,3.17
2018-04-17T14:24:53.364Z,3.30
2018-04-17T14:27:21.944Z,3.30
2018-04-17T14:29:50.775Z,2.93
2018-04-17T14:32:19.347Z,2.80
2018-04-17T14:34:48.216Z,3.10
2018-04-17T14:37:16.835Z,2.80
2018-04-17T14:39:45.487Z,3.43
2018-04-17T14:42:15.276Z,3.30
2018-04-17T14:44:44.219Z,3.30
2018-04-17T14:47:12.796Z,2.40
2018-04-17T14:49:42.412Z,2.60
2018-04-17T14:52:10.956Z,2.87
2018-04-17T14:54:45.282Z,2.80
2018-04-17T14:57:13.875Z,3.50
2018-04-17T14:59:43.394Z,3.50
2018-04-17T15:02:12.264Z,3.20
2018-04-17T15:04:42.154Z,3.07
2018-04-17T15:07:10.717Z,3.20
2018-04-17T15:09:45.707Z,2.40
2018-04-17T15:12:14.511Z,2.97
2018-04-17T15:14:46.943Z,2.83
2018-04-17T15:17:21.742Z,2.43
2018-04-17T15:19:53.727Z,2.50
2018-04-17T15:22:24.251Z,2.83
2018-04-17T15:27:32.434Z,2.70
2018-04-17T15:30:01.473Z,2.20
2018-04-17T15:32:29.998Z,2.70
2018-04-17T15:35:02.046Z,2.20
2018-04-17T15:37:30.861Z,2.30
2018-04-17T15:39:59.445Z,2.40
2018-04-17T15:42:28.045Z,2.33
2018-04-17T15:44:57.631Z,2.23
2018-04-17T15:47:26.197Z,2.40
2018-04-17T15:50:00.639Z,2.20
2018-04-17T15:52:29.491Z,2.43
2018-04-17T15:54:58.575Z,2.10
2018-04-17T15:57:27.138Z,1.73
2018-04-17T15:59:55.720Z,2.13
2018-04-17T16:02:24.309Z,2.67
2018-04-17T16:04:57.524Z,2.50
2018-04-17T16:07:26.388Z,2.90
2018-04-17T16:10:01.237Z,1.93
2018-04-17T16:12:30.043Z,1.80
2018-04-17T16:14:58.587Z,1.97
2018-04-17T16:17:27.394Z,2.33
2018-04-17T16:19:56.010Z,2.87
2018-04-17T16:22:24.574Z,2.33
2018-04-17T16:24:53.441Z,1.80
2018-04-17T16:27:21.990Z,1.73
2018-04-17T16:29:50.912Z,2.20
2018-04-17T16:32:19.735Z,3.60
2018-04-17T16:34:48.480Z,2.20
2018-04-17T16:37:17.111Z,2.33
2018-04-17T16:39:45.927Z,2.73
2018-04-17T16:42:14.543Z,2.33
2018-04-17T16:44:43.169Z,2.83
2018-04-17T16:47:15.152Z,2.17
2018-04-17T16:49:45.099Z,2.03
2018-04-17T16:52:13.645Z,3.70
2018-04-17T16:54:42.552Z,1.90
2018-04-17T16:57:11.125Z,2.30
2018-04-17T16:59:39.954Z,2.20
2018-04-17T17:02:08.825Z,2.73
2018-04-17T17:04:37.807Z,3.27
2018-04-17T17:07:06.351Z,2.73
2018-04-17T17:09:34.930Z,7.63
2018-04-17T17:12:05.027Z,4.07
2018-04-17T17:14:48.382Z,4.97
2018-04-17T17:17:17.267Z,5.47
2018-04-17T17:19:45.863Z,3.93
2018-04-17T17:22:14.667Z,4.00
2018-04-17T17:24:48.063Z,2.40
2018-04-17T17:27:16.707Z,2.23
2018-04-17T17:29:45.262Z,2.10
2018-04-17T17:32:13.826Z,5.07
2018-04-17T17:34:42.420Z,5.23
2018-04-17T17:37:10.965Z,4.27
2018-04-17T17:39:42.215Z,4.27
2018-04-17T17:42:10.975Z,4.17
2018-04-17T17:44:39.820Z,2.57
2018-04-17T17:47:08.687Z,2.87
2018-04-17T17:49:37.370Z,2.97
2018-04-17T17:52:06.209Z,2.83
2018-04-17T17:54:45.903Z,3.10
2018-04-17T17:57:14.963Z,2.73
2018-04-17T17:59:43.572Z,5.63
2018-04-17T18:02:12.600Z,3.10
2018-04-17T18:04:45.361Z,5.40
2018-04-17T18:07:13.979Z,3.20
2018-04-17T18:09:42.699Z,3.83
2018-04-17T18:12:11.654Z,3.90
2018-04-17T18:14:40.418Z,4.80
2018-04-17T18:17:08.984Z,4.80
2018-04-17T18:19:42.561Z,5.13
2018-04-17T18:22:11.538Z,5.60
2018-04-17T18:24:41.641Z,4.17
2018-04-17T18:27:10.330Z,4.10
2018-04-17T18:29:39.272Z,4.80
2018-04-17T18:32:09.850Z,5.40
2018-04-17T18:34:39.100Z,5.20
2018-04-17T18:37:08.217Z,4.73
2018-04-17T18:39:40.989Z,5.33
2018-04-17T18:42:10.802Z,4.57
2018-04-17T18:44:40.017Z,5.90
2018-04-17T18:47:09.035Z,6.60
2018-04-17T18:49:38.198Z,4.83
2018-04-17T18:52:06.848Z,5.73
2018-04-17T18:54:47.241Z,5.40
2018-04-17T18:57:15.832Z,4.87
2018-04-17T18:59:49.152Z,5.30
2018-04-17T19:02:17.892Z,5.03
2018-04-17T19:04:47.048Z,5.30
2018-04-17T19:07:16.866Z,4.93
2018-04-17T19:09:46.525Z,4.60
2018-04-17T19:12:15.797Z,4.90
2018-04-17T19:14:44.526Z,5.27
2018-04-17T19:17:13.571Z,5.30
2018-04-17T19:19:42.173Z,5.80
2018-04-17T19:22:14.279Z,5.23
2018-04-17T19:24:43.980Z,5.67
2018-04-17T19:27:17.524Z,4.93
2018-04-17T19:29:46.553Z,4.90
2018-04-17T19:32:15.395Z,5.43
2018-04-17T19:34:44.671Z,4.73
2018-04-17T19:37:13.246Z,5.43
2018-04-17T19:39:42.191Z,6.23
2018-04-17T19:42:10.763Z,5.97
2018-04-17T19:44:40.079Z,5.80
2018-04-17T19:47:08.985Z,4.77
2018-04-17T19:49:37.643Z,5.90
2018-04-17T19:52:08.781Z,5.17
2018-04-17T19:54:38.508Z,6.00
2018-04-17T19:57:10.258Z,6.37
2018-04-17T19:59:39.327Z,5.13
2018-04-17T20:02:13.063Z,5.90
2018-04-17T20:04:42.051Z,8.20
2018-04-17T20:07:12.619Z,9.00
2018-04-17T20:09:41.342Z,7.80
2018-04-17T20:12:10.138Z,9.30
2018-04-17T20:14:39.118Z,10.60
2018-04-17T20:17:09.000Z,8.90
2018-04-17T20:19:37.627Z,7.43
2018-04-17T20:22:06.250Z,8.70
2018-04-17T20:27:16.056Z,9.57
2018-04-17T20:29:44.963Z,9.50
2018-04-17T20:32:13.516Z,8.03
2018-04-17T20:34:42.114Z,9.73
2018-04-17T20:37:11.121Z,8.80
2018-04-17T20:39:39.903Z,7.53
2018-04-17T20:42:08.523Z,9.43
2018-04-17T20:44:37.559Z,7.93
2018-04-17T20:47:17.375Z,8.73
2018-04-17T20:49:47.625Z,8.67
2018-04-17T20:52:16.255Z,8.57
2018-04-17T20:54:44.923Z,8.70
2018-04-17T20:57:13.871Z,9.40
2018-04-17T20:59:42.785Z,9.43
2018-04-17T21:02:14.199Z,9.63
2018-04-17T21:04:43.013Z,9.13
2018-04-17T21:07:11.611Z,10.03
2018-04-17T21:09:40.474Z,6.23
2018-04-17T21:12:09.630Z,4.33
2018-04-17T21:14:38.362Z,7.37
2018-04-17T21:17:07.008Z,7.13
2018-04-17T21:19:35.855Z,6.40
2018-04-17T21:22:05.855Z,5.40
2018-04-17T21:24:37.312Z,5.37
2018-04-17T21:27:06.317Z,4.90
2018-04-17T21:29:34.960Z,4.93
2018-04-17T21:32:04.571Z,5.10
2018-04-17T21:34:33.588Z,5.10
2018-04-17T21:37:02.343Z,5.03
2018-04-17T21:39:30.937Z,6.73
2018-04-17T21:42:05.744Z,5.80
2018-04-17T21:44:34.292Z,4.77
2018-04-17T21:47:06.800Z,5.43
2018-04-17T21:49:35.355Z,6.13
2018-04-17T21:52:06.735Z,6.20
2018-04-17T21:54:35.763Z,7.70
2018-04-17T21:57:05.679Z,7.83
2018-04-17T21:59:34.216Z,6.73
2018-04-17T22:02:04.324Z,6.60
2018-04-17T22:04:32.873Z,6.30
2018-04-17T22:07:01.834Z,6.07
2018-04-17T22:09:30.689Z,6.90
2018-04-17T22:12:06.021Z,6.33
2018-04-17T22:14:35.050Z,6.83
2018-04-17T22:17:05.907Z,5.40
2018-04-17T22:19:34.607Z,5.77
2018-04-17T22:22:11.067Z,4.80
2018-04-17T22:24:39.903Z,4.50
2018-04-17T22:27:08.438Z,4.70
2018-04-17T22:29:37.507Z,3.47
2018-04-17T22:32:12.532Z,4.50
2018-04-17T22:34:41.134Z,4.93
2018-04-17T22:37:10.041Z,4.80
2018-04-17T22:39:38.733Z,3.90
2018-04-17T22:42:07.483Z,4.90
2018-04-17T22:44:36.872Z,4.20
2018-04-17T22:47:05.971Z,3.83
2018-04-17T22:49:35.163Z,4.50
2018-04-17T22:52:05.355Z,4.00
2018-04-17T22:54:34.306Z,4.77
2018-04-17T22:57:18.379Z,4.20
2018-04-17T22:59:47.367Z,4.80
2018-04-17T23:02:15.932Z,5.20
2018-04-17T23:04:46.519Z,4.70
2018-04-17T23:07:15.425Z,4.50
2018-04-17T23:09:44.106Z,4.17
2018-04-17T23:12:12.643Z,4.63
2018-04-17T23:14:43.327Z,4.60
2018-04-17T23:17:12.038Z,4.87
2018-04-17T23:19:40.919Z,4.40
2018-04-17T23:22:14.880Z,4.70
2018-04-17T23:24:43.822Z,4.47
2018-04-17T23:27:12.935Z,5.97
2018-04-17T23:29:41.962Z,5.40
2018-04-17T23:32:11.743Z,5.17
2018-04-17T23:37:13.588Z,5.83
2018-04-17T23:39:43.167Z,6.20
2018-04-17T23:42:12.500Z,6.00
2018-04-17T23:44:46.751Z,6.70
2018-04-17T23:47:15.866Z,6.33
2018-04-17T23:49:48.512Z,7.80
2018-04-17T23:52:17.498Z,7.50
2018-04-17T23:54:46.196Z,6.90
2018-04-17T23:57:14.842Z,8.37
2018-04-17T23:59:44.415Z,7.40
